sensor_id;sensor_type;location;lat;lon;timestamp;pressure;altitude;pressure_sealevel;temperature;humidity
29569;BME280;16501;51.462;14.346;2023-05-18T00:00:09;101110.34;;;9.58;63.54
29569;BME280;16501;51.462;14.346;2023-05-18T00:02:40;101128.16;;;9.65;62.69
29569;BME280;16501;51.462;14.346;2023-05-18T00:05:06;101114.38;;;9.57;63.39
29569;BME280;16501;51.462;14.346;2023-05-18T00:07:34;101126.38;;;9.58;62.38
29569;BME280;16501;51.462;14.346;2023-05-18T00:09:59;101128.69;;;9.59;63.34
29569;BME280;16501;51.462;14.346;2023-05-18T00:12:27;101130.28;;;9.60;62.89
29569;BME280;16501;51.462;14.346;2023-05-18T00:14:52;101139.00;;;9.62;62.99
29569;BME280;16501;51.462;14.346;2023-05-18T00:17:18;101131.59;;;9.56;63.17
29569;BME280;16501;51.462;14.346;2023-05-18T00:19:44;101142.38;;;9.57;63.28
29569;BME280;16501;51.462;14.346;2023-05-18T00:22:10;101127.91;;;9.46;63.38
29569;BME280;16501;51.462;14.346;2023-05-18T00:24:43;101134.19;;;9.50;63.29
29569;BME280;16501;51.462;14.346;2023-05-18T00:27:09;101131.16;;;9.44;63.41
29569;BME280;16501;51.462;14.346;2023-05-18T00:29:35;101150.44;;;9.55;64.23
29569;BME280;16501;51.462;14.346;2023-05-18T00:32:00;101139.66;;;9.41;65.07
29569;BME280;16501;51.462;14.346;2023-05-18T00:34:25;101150.53;;;9.52;65.15
29569;BME280;16501;51.462;14.346;2023-05-18T00:36:51;101151.75;;;9.51;64.94
29569;BME280;16501;51.462;14.346;2023-05-18T00:39:16;101127.84;;;9.33;65.37
29569;BME280;16501;51.462;14.346;2023-05-18T00:41:41;101147.88;;;9.32;65.81
29569;BME280;16501;51.462;14.346;2023-05-18T00:44:06;101133.09;;;9.18;66.38
29569;BME280;16501;51.462;14.346;2023-05-18T00:46:32;101136.91;;;9.24;66.26
29569;BME280;16501;51.462;14.346;2023-05-18T00:48:57;101159.88;;;9.32;66.93
29569;BME280;16501;51.462;14.346;2023-05-18T00:51:23;101164.34;;;9.30;66.39
29569;BME280;16501;51.462;14.346;2023-05-18T00:53:50;101154.59;;;9.21;66.70
29569;BME280;16501;51.462;14.346;2023-05-18T00:56:16;101159.47;;;9.17;66.28
29569;BME280;16501;51.462;14.346;2023-05-18T00:58:42;101131.56;;;9.01;66.41
29569;BME280;16501;51.462;14.346;2023-05-18T01:01:08;101158.13;;;9.09;66.87
29569;BME280;16501;51.462;14.346;2023-05-18T01:03:37;101160.44;;;9.11;66.42
29569;BME280;16501;51.462;14.346;2023-05-18T01:06:06;101148.69;;;9.03;66.51
29569;BME280;16501;51.462;14.346;2023-05-18T01:08:32;101152.25;;;9.03;66.84
29569;BME280;16501;51.462;14.346;2023-05-18T01:14:05;101164.16;;;8.91;67.80
29569;BME280;16501;51.462;14.346;2023-05-18T01:16:40;101175.16;;;8.98;68.14
29569;BME280;16501;51.462;14.346;2023-05-18T01:22:52;101156.84;;;8.81;68.36
29569;BME280;16501;51.462;14.346;2023-05-18T01:25:49;101165.94;;;8.85;68.05
29569;BME280;16501;51.462;14.346;2023-05-18T01:28:20;101137.06;;;8.59;67.60
29569;BME280;16501;51.462;14.346;2023-05-18T01:30:50;101163.41;;;8.74;67.86
29569;BME280;16501;51.462;14.346;2023-05-18T01:33:16;101159.56;;;8.68;67.93
29569;BME280;16501;51.462;14.346;2023-05-18T01:35:41;101168.31;;;8.70;68.09
29569;BME280;16501;51.462;14.346;2023-05-18T01:38:13;101185.75;;;8.74;68.36
29569;BME280;16501;51.462;14.346;2023-05-18T01:40:45;101167.28;;;8.64;68.08
29569;BME280;16501;51.462;14.346;2023-05-18T01:43:34;101185.50;;;8.68;67.73
29569;BME280;16501;51.462;14.346;2023-05-18T01:46:04;101182.81;;;8.65;68.11
29569;BME280;16501;51.462;14.346;2023-05-18T01:48:34;101182.47;;;8.63;67.53
29569;BME280;16501;51.462;14.346;2023-05-18T01:51:03;101187.78;;;8.57;67.88
29569;BME280;16501;51.462;14.346;2023-05-18T01:53:35;101184.72;;;8.52;68.06
29569;BME280;16501;51.462;14.346;2023-05-18T01:56:18;101187.34;;;8.42;67.97
29569;BME280;16501;51.462;14.346;2023-05-18T01:58:46;101174.13;;;8.26;68.08
29569;BME280;16501;51.462;14.346;2023-05-18T02:01:11;101179.28;;;8.28;68.46
29569;BME280;16501;51.462;14.346;2023-05-18T02:03:37;101166.25;;;8.21;68.59
29569;BME280;16501;51.462;14.346;2023-05-18T02:06:02;101179.28;;;8.28;68.50
29569;BME280;16501;51.462;14.346;2023-05-18T02:08:27;101174.72;;;8.18;68.84
29569;BME280;16501;51.462;14.346;2023-05-18T02:10:53;101175.56;;;8.15;69.54
29569;BME280;16501;51.462;14.346;2023-05-18T02:13:18;101189.28;;;8.25;69.81
29569;BME280;16501;51.462;14.346;2023-05-18T02:15:43;101205.78;;;8.20;70.24
29569;BME280;16501;51.462;14.346;2023-05-18T02:18:09;101182.75;;;8.16;70.30
29569;BME280;16501;51.462;14.346;2023-05-18T02:20:34;101176.59;;;8.04;70.09
29569;BME280;16501;51.462;14.346;2023-05-18T02:23:02;101186.56;;;8.05;70.16
29569;BME280;16501;51.462;14.346;2023-05-18T02:25:27;101158.97;;;7.91;70.63
29569;BME280;16501;51.462;14.346;2023-05-18T02:27:52;101183.06;;;8.01;70.38
29569;BME280;16501;51.462;14.346;2023-05-18T02:30:18;101194.50;;;8.07;70.58
29569;BME280;16501;51.462;14.346;2023-05-18T02:32:43;101198.94;;;8.04;70.17
29569;BME280;16501;51.462;14.346;2023-05-18T02:35:11;101162.34;;;7.82;70.25
29569;BME280;16501;51.462;14.346;2023-05-18T02:37:37;101176.91;;;7.90;70.90
29569;BME280;16501;51.462;14.346;2023-05-18T02:40:14;101179.09;;;7.82;70.82
29569;BME280;16501;51.462;14.346;2023-05-18T02:42:40;101178.78;;;7.77;71.30
29569;BME280;16501;51.462;14.346;2023-05-18T02:45:06;101204.91;;;7.86;71.33
29569;BME280;16501;51.462;14.346;2023-05-18T02:47:31;101172.94;;;7.71;71.12
29569;BME280;16501;51.462;14.346;2023-05-18T02:49:56;101201.94;;;7.77;71.31
29569;BME280;16501;51.462;14.346;2023-05-18T02:52:22;101202.00;;;7.73;70.89
29569;BME280;16501;51.462;14.346;2023-05-18T02:54:47;101212.88;;;7.68;71.51
29569;BME280;16501;51.462;14.346;2023-05-18T02:57:12;101210.56;;;7.63;71.17
29569;BME280;16501;51.462;14.346;2023-05-18T02:59:38;101217.97;;;7.53;71.65
29569;BME280;16501;51.462;14.346;2023-05-18T03:02:04;101217.13;;;7.56;72.08
29569;BME280;16501;51.462;14.346;2023-05-18T03:04:29;101210.72;;;7.35;72.41
29569;BME280;16501;51.462;14.346;2023-05-18T03:06:55;101210.59;;;7.43;72.29
29569;BME280;16501;51.462;14.346;2023-05-18T03:09:21;101197.03;;;7.21;72.77
29569;BME280;16501;51.462;14.346;2023-05-18T03:11:47;101205.28;;;7.28;73.64
29569;BME280;16501;51.462;14.346;2023-05-18T03:14:12;101222.31;;;7.34;73.58
29569;BME280;16501;51.462;14.346;2023-05-18T03:16:37;101225.59;;;7.29;74.08
29569;BME280;16501;51.462;14.346;2023-05-18T03:19:03;101212.97;;;7.21;73.58
29569;BME280;16501;51.462;14.346;2023-05-18T03:21:28;101225.66;;;7.25;73.86
29569;BME280;16501;51.462;14.346;2023-05-18T03:24:02;101234.03;;;7.25;73.56
29569;BME280;16501;51.462;14.346;2023-05-18T03:26:27;101240.44;;;7.22;73.67
29569;BME280;16501;51.462;14.346;2023-05-18T03:28:55;101244.06;;;7.19;73.87
29569;BME280;16501;51.462;14.346;2023-05-18T03:31:20;101223.25;;;7.04;73.78
29569;BME280;16501;51.462;14.346;2023-05-18T03:33:46;101237.13;;;7.07;74.18
29569;BME280;16501;51.462;14.346;2023-05-18T03:36:11;101236.69;;;7.09;74.86
29569;BME280;16501;51.462;14.346;2023-05-18T03:38:37;101249.44;;;7.10;74.52
29569;BME280;16501;51.462;14.346;2023-05-18T03:41:02;101251.50;;;7.06;74.51
29569;BME280;16501;51.462;14.346;2023-05-18T03:43:27;101249.19;;;7.01;76.29
29569;BME280;16501;51.462;14.346;2023-05-18T03:45:56;101240.16;;;6.93;75.41
29569;BME280;16501;51.462;14.346;2023-05-18T03:48:22;101258.75;;;6.99;75.58
29569;BME280;16501;51.462;14.346;2023-05-18T03:50:48;101257.69;;;6.93;75.63
29569;BME280;16501;51.462;14.346;2023-05-18T03:53:14;101256.44;;;6.94;75.84
29569;BME280;16501;51.462;14.346;2023-05-18T03:55:42;101249.81;;;6.88;75.87
29569;BME280;16501;51.462;14.346;2023-05-18T03:58:10;101231.97;;;6.82;75.94
29569;BME280;16501;51.462;14.346;2023-05-18T04:00:35;101256.44;;;6.94;75.58
29569;BME280;16501;51.462;14.346;2023-05-18T04:03:01;101249.38;;;6.90;75.96
29569;BME280;16501;51.462;14.346;2023-05-18T04:05:27;101238.75;;;6.81;75.83
29569;BME280;16501;51.462;14.346;2023-05-18T04:07:53;101231.66;;;6.76;75.25
29569;BME280;16501;51.462;14.346;2023-05-18T04:10:22;101252.31;;;6.79;75.22
29569;BME280;16501;51.462;14.346;2023-05-18T04:12:48;101272.47;;;6.90;75.90
29569;BME280;16501;51.462;14.346;2023-05-18T04:15:13;101254.22;;;6.86;76.14
29569;BME280;16501;51.462;14.346;2023-05-18T04:17:39;101249.97;;;6.77;76.57
29569;BME280;16501;51.462;14.346;2023-05-18T04:20:10;101252.72;;;6.81;76.70
29569;BME280;16501;51.462;14.346;2023-05-18T04:22:42;101262.50;;;6.89;77.22
29569;BME280;16501;51.462;14.346;2023-05-18T04:25:08;101240.63;;;6.64;77.95
29569;BME280;16501;51.462;14.346;2023-05-18T04:27:35;101258.34;;;6.77;78.50
29569;BME280;16501;51.462;14.346;2023-05-18T04:30:01;101267.00;;;6.83;78.98
29569;BME280;16501;51.462;14.346;2023-05-18T04:32:26;101248.91;;;6.68;79.16
29569;BME280;16501;51.462;14.346;2023-05-18T04:34:55;101247.03;;;6.61;80.31
29569;BME280;16501;51.462;14.346;2023-05-18T04:37:22;101261.91;;;6.78;80.36
29569;BME280;16501;51.462;14.346;2023-05-18T04:39:47;101269.78;;;6.83;80.89
29569;BME280;16501;51.462;14.346;2023-05-18T04:42:13;101246.84;;;6.72;81.86
29569;BME280;16501;51.462;14.346;2023-05-18T04:44:38;101268.63;;;6.80;82.61
29569;BME280;16501;51.462;14.346;2023-05-18T04:47:04;101246.13;;;6.68;82.82
29569;BME280;16501;51.462;14.346;2023-05-18T04:49:32;101269.78;;;6.83;82.83
29569;BME280;16501;51.462;14.346;2023-05-18T04:51:58;101273.78;;;6.82;82.92
29569;BME280;16501;51.462;14.346;2023-05-18T04:54:24;101266.16;;;6.86;85.35
29569;BME280;16501;51.462;14.346;2023-05-18T04:56:51;101279.94;;;6.97;84.81
29569;BME280;16501;51.462;14.346;2023-05-18T04:59:17;101283.97;;;6.92;85.22
29569;BME280;16501;51.462;14.346;2023-05-18T05:01:43;101282.28;;;6.98;86.55
29569;BME280;16501;51.462;14.346;2023-05-18T05:04:08;101292.59;;;7.02;86.94
29569;BME280;16501;51.462;14.346;2023-05-18T05:06:33;101262.03;;;6.94;87.10
29569;BME280;16501;51.462;14.346;2023-05-18T05:08:59;101289.00;;;7.01;86.50
29569;BME280;16501;51.462;14.346;2023-05-18T05:11:24;101269.19;;;6.95;86.17
29569;BME280;16501;51.462;14.346;2023-05-18T05:13:49;101284.16;;;7.05;86.13
29569;BME280;16501;51.462;14.346;2023-05-18T05:16:15;101286.94;;;7.05;86.71
29569;BME280;16501;51.462;14.346;2023-05-18T05:18:40;101304.25;;;7.20;86.58
29569;BME280;16501;51.462;14.346;2023-05-18T05:21:05;101295.75;;;7.27;87.06
29569;BME280;16501;51.462;14.346;2023-05-18T05:23:31;101290.53;;;7.29;87.62
29569;BME280;16501;51.462;14.346;2023-05-18T05:25:56;101276.34;;;7.20;86.98
29569;BME280;16501;51.462;14.346;2023-05-18T05:28:21;101306.91;;;7.51;87.62
29569;BME280;16501;51.462;14.346;2023-05-18T05:30:46;101308.41;;;7.55;85.88
29569;BME280;16501;51.462;14.346;2023-05-18T05:33:12;101297.97;;;7.60;87.04
29569;BME280;16501;51.462;14.346;2023-05-18T05:35:37;101300.06;;;7.76;86.62
29569;BME280;16501;51.462;14.346;2023-05-18T05:38:02;101295.94;;;7.84;87.04
29569;BME280;16501;51.462;14.346;2023-05-18T05:40:27;101302.56;;;7.90;89.62
29569;BME280;16501;51.462;14.346;2023-05-18T05:42:53;101287.19;;;7.82;88.09
29569;BME280;16501;51.462;14.346;2023-05-18T05:45:18;101305.66;;;7.96;88.10
29569;BME280;16501;51.462;14.346;2023-05-18T05:47:43;101289.13;;;7.85;91.33
29569;BME280;16501;51.462;14.346;2023-05-18T05:50:09;101300.56;;;7.90;89.66
29569;BME280;16501;51.462;14.346;2023-05-18T05:52:34;101302.09;;;7.95;87.69
29569;BME280;16501;51.462;14.346;2023-05-18T05:55:00;101314.63;;;8.07;87.39
29569;BME280;16501;51.462;14.346;2023-05-18T05:57:25;101312.19;;;8.09;85.67
29569;BME280;16501;51.462;14.346;2023-05-18T05:59:50;101309.16;;;8.20;85.76
29569;BME280;16501;51.462;14.346;2023-05-18T06:02:15;101294.56;;;8.12;87.53
29569;BME280;16501;51.462;14.346;2023-05-18T06:04:41;101312.25;;;8.45;84.93
29569;BME280;16501;51.462;14.346;2023-05-18T06:07:07;101304.84;;;8.55;84.12
29569;BME280;16501;51.462;14.346;2023-05-18T06:09:32;101293.09;;;8.64;81.44
29569;BME280;16501;51.462;14.346;2023-05-18T06:11:57;101306.81;;;8.91;80.02
29569;BME280;16501;51.462;14.346;2023-05-18T06:14:23;101290.47;;;8.90;81.48
29569;BME280;16501;51.462;14.346;2023-05-18T06:16:48;101301.06;;;9.15;79.64
29569;BME280;16501;51.462;14.346;2023-05-18T06:19:13;101288.63;;;9.16;80.19
29569;BME280;16501;51.462;14.346;2023-05-18T06:21:39;101315.28;;;9.37;77.94
29569;BME280;16501;51.462;14.346;2023-05-18T06:24:04;101313.28;;;9.37;73.03
29569;BME280;16501;51.462;14.346;2023-05-18T06:26:30;101322.44;;;9.54;73.25
29569;BME280;16501;51.462;14.346;2023-05-18T06:28:56;101302.59;;;9.49;72.47
29569;BME280;16501;51.462;14.346;2023-05-18T06:31:21;101311.41;;;9.63;73.23
29569;BME280;16501;51.462;14.346;2023-05-18T06:33:47;101322.38;;;9.87;74.77
29569;BME280;16501;51.462;14.346;2023-05-18T06:36:12;101317.03;;;9.93;73.26
29569;BME280;16501;51.462;14.346;2023-05-18T06:38:37;101317.69;;;9.97;74.22
29569;BME280;16501;51.462;14.346;2023-05-18T06:41:02;101328.38;;;10.02;73.97
29569;BME280;16501;51.462;14.346;2023-05-18T06:43:28;101330.31;;;10.18;71.67
29569;BME280;16501;51.462;14.346;2023-05-18T06:45:54;101330.00;;;10.29;69.53
29569;BME280;16501;51.462;14.346;2023-05-18T06:48:22;101328.38;;;10.31;70.49
29569;BME280;16501;51.462;14.346;2023-05-18T06:50:47;101291.41;;;10.20;65.97
29569;BME280;16501;51.462;14.346;2023-05-18T06:53:12;101319.31;;;10.53;66.77
29569;BME280;16501;51.462;14.346;2023-05-18T06:55:37;101315.19;;;10.57;59.85
29569;BME280;16501;51.462;14.346;2023-05-18T06:58:03;101328.53;;;10.79;56.93
29569;BME280;16501;51.462;14.346;2023-05-18T07:00:28;101315.94;;;10.71;54.83
29569;BME280;16501;51.462;14.346;2023-05-18T07:02:53;101304.28;;;10.72;53.65
29569;BME280;16501;51.462;14.346;2023-05-18T07:05:18;101332.44;;;11.07;51.59
29569;BME280;16501;51.462;14.346;2023-05-18T07:07:44;101315.28;;;11.05;52.40
29569;BME280;16501;51.462;14.346;2023-05-18T07:10:09;101339.03;;;11.26;50.72
29569;BME280;16501;51.462;14.346;2023-05-18T07:12:34;101317.28;;;11.18;51.93
29569;BME280;16501;51.462;14.346;2023-05-18T07:15:00;101331.72;;;11.42;52.19
29569;BME280;16501;51.462;14.346;2023-05-18T07:17:25;101329.00;;;11.51;51.83
29569;BME280;16501;51.462;14.346;2023-05-18T07:19:50;101328.22;;;11.50;51.06
29569;BME280;16501;51.462;14.346;2023-05-18T07:22:15;101324.63;;;11.50;50.06
29569;BME280;16501;51.462;14.346;2023-05-18T07:24:41;101334.78;;;11.69;51.85
29569;BME280;16501;51.462;14.346;2023-05-18T07:27:07;101336.69;;;11.73;49.59
29569;BME280;16501;51.462;14.346;2023-05-18T07:29:32;101311.78;;;11.62;49.52
29569;BME280;16501;51.462;14.346;2023-05-18T07:31:57;101340.34;;;11.82;50.79
29569;BME280;16501;51.462;14.346;2023-05-18T07:34:23;101327.84;;;11.96;50.92
29569;BME280;16501;51.462;14.346;2023-05-18T07:36:50;101335.63;;;11.92;51.15
29569;BME280;16501;51.462;14.346;2023-05-18T07:39:15;101319.06;;;11.72;50.82
29569;BME280;16501;51.462;14.346;2023-05-18T07:41:44;101323.81;;;11.97;52.19
29569;BME280;16501;51.462;14.346;2023-05-18T07:44:10;101340.09;;;12.24;52.14
29569;BME280;16501;51.462;14.346;2023-05-18T07:46:35;101315.44;;;12.29;51.43
29569;BME280;16501;51.462;14.346;2023-05-18T07:49:01;101298.88;;;12.31;52.28
29569;BME280;16501;51.462;14.346;2023-05-18T07:51:26;101301.03;;;12.26;50.23
29569;BME280;16501;51.462;14.346;2023-05-18T07:53:51;101329.25;;;12.45;48.40
29569;BME280;16501;51.462;14.346;2023-05-18T07:56:17;101287.66;;;12.40;50.78
29569;BME280;16501;51.462;14.346;2023-05-18T07:58:42;101320.63;;;12.71;48.69
29569;BME280;16501;51.462;14.346;2023-05-18T08:01:08;101317.84;;;12.80;50.12
29569;BME280;16501;51.462;14.346;2023-05-18T08:03:36;101340.44;;;12.89;47.67
29569;BME280;16501;51.462;14.346;2023-05-18T08:06:01;101321.41;;;12.71;49.21
29569;BME280;16501;51.462;14.346;2023-05-18T08:08:27;101315.66;;;12.75;49.31
29569;BME280;16501;51.462;14.346;2023-05-18T08:10:52;101329.72;;;12.75;47.20
29569;BME280;16501;51.462;14.346;2023-05-18T08:13:18;101300.84;;;12.83;47.92
29569;BME280;16501;51.462;14.346;2023-05-18T08:15:43;101311.69;;;13.04;46.65
29569;BME280;16501;51.462;14.346;2023-05-18T08:18:08;101318.47;;;13.15;48.36
29569;BME280;16501;51.462;14.346;2023-05-18T08:20:33;101326.34;;;13.39;48.07
29569;BME280;16501;51.462;14.346;2023-05-18T08:22:59;101314.56;;;13.22;47.43
29569;BME280;16501;51.462;14.346;2023-05-18T08:25:24;101318.91;;;13.14;46.27
29569;BME280;16501;51.462;14.346;2023-05-18T08:27:49;101315.13;;;12.98;49.13
29569;BME280;16501;51.462;14.346;2023-05-18T08:30:15;101323.50;;;13.30;47.63
29569;BME280;16501;51.462;14.346;2023-05-18T08:32:40;101325.44;;;13.61;50.13
29569;BME280;16501;51.462;14.346;2023-05-18T08:35:06;101318.25;;;13.41;47.64
29569;BME280;16501;51.462;14.346;2023-05-18T08:37:32;101325.91;;;13.50;49.51
29569;BME280;16501;51.462;14.346;2023-05-18T08:39:58;101303.31;;;13.22;46.82
29569;BME280;16501;51.462;14.346;2023-05-18T08:42:33;101320.91;;;13.45;45.69
29569;BME280;16501;51.462;14.346;2023-05-18T08:45:09;101310.72;;;13.56;48.90
29569;BME280;16501;51.462;14.346;2023-05-18T08:47:36;101318.94;;;13.23;46.97
29569;BME280;16501;51.462;14.346;2023-05-18T08:50:02;101318.53;;;12.93;46.76
29569;BME280;16501;51.462;14.346;2023-05-18T08:52:33;101323.44;;;12.71;47.44
29569;BME280;16501;51.462;14.346;2023-05-18T08:55:00;101308.34;;;12.46;47.61
29569;BME280;16501;51.462;14.346;2023-05-18T08:57:29;101321.09;;;12.69;49.41
29569;BME280;16501;51.462;14.346;2023-05-18T08:59:59;101326.41;;;12.67;49.67
29569;BME280;16501;51.462;14.346;2023-05-18T09:02:26;101303.31;;;12.41;50.27
29569;BME280;16501;51.462;14.346;2023-05-18T09:04:52;101327.44;;;12.51;47.13
29569;BME280;16501;51.462;14.346;2023-05-18T09:07:21;101325.84;;;12.50;48.88
29569;BME280;16501;51.462;14.346;2023-05-18T09:09:47;101320.81;;;12.45;48.57
29569;BME280;16501;51.462;14.346;2023-05-18T09:12:13;101322.31;;;12.59;48.83
29569;BME280;16501;51.462;14.346;2023-05-18T09:14:41;101306.75;;;12.45;47.90
29569;BME280;16501;51.462;14.346;2023-05-18T09:17:08;101318.25;;;12.60;49.16
29569;BME280;16501;51.462;14.346;2023-05-18T09:19:33;101306.66;;;12.89;47.69
29569;BME280;16501;51.462;14.346;2023-05-18T09:21:59;101326.44;;;12.76;47.32
29569;BME280;16501;51.462;14.346;2023-05-18T09:24:24;101316.28;;;12.70;49.21
29569;BME280;16501;51.462;14.346;2023-05-18T09:26:50;101318.13;;;12.63;48.33
29569;BME280;16501;51.462;14.346;2023-05-18T09:29:17;101308.66;;;12.48;48.56
29569;BME280;16501;51.462;14.346;2023-05-18T09:31:44;101307.78;;;12.60;48.31
29569;BME280;16501;51.462;14.346;2023-05-18T09:34:10;101300.81;;;12.74;47.88
29569;BME280;16501;51.462;14.346;2023-05-18T09:36:36;101302.16;;;13.01;47.72
29569;BME280;16501;51.462;14.346;2023-05-18T09:39:09;101286.22;;;13.07;48.23
29569;BME280;16501;51.462;14.346;2023-05-18T09:41:39;101293.88;;;13.16;47.16
29569;BME280;16501;51.462;14.346;2023-05-18T09:44:05;101295.84;;;13.47;47.61
29569;BME280;16501;51.462;14.346;2023-05-18T09:46:36;101288.03;;;13.60;45.31
29569;BME280;16501;51.462;14.346;2023-05-18T09:49:02;101269.88;;;13.61;46.51
29569;BME280;16501;51.462;14.346;2023-05-18T09:51:28;101284.56;;;13.84;44.79
29569;BME280;16501;51.462;14.346;2023-05-18T09:53:55;101296.09;;;14.23;44.03
29569;BME280;16501;51.462;14.346;2023-05-18T09:56:22;101282.31;;;14.15;45.23
29569;BME280;16501;51.462;14.346;2023-05-18T09:58:48;101275.75;;;14.19;47.25
29569;BME280;16501;51.462;14.346;2023-05-18T10:01:13;101270.13;;;14.09;46.76
29569;BME280;16501;51.462;14.346;2023-05-18T10:03:38;101293.31;;;14.13;46.32
29569;BME280;16501;51.462;14.346;2023-05-18T10:08:32;101275.94;;;13.96;47.60
29569;BME280;16501;51.462;14.346;2023-05-18T10:10:57;101283.31;;;13.75;47.07
29569;BME280;16501;51.462;14.346;2023-05-18T10:13:25;101284.56;;;13.65;46.73
29569;BME280;16501;51.462;14.346;2023-05-18T10:16:04;101291.94;;;13.72;47.41
29569;BME280;16501;51.462;14.346;2023-05-18T10:18:34;101282.88;;;13.58;45.56
29569;BME280;16501;51.462;14.346;2023-05-18T10:21:02;101283.00;;;13.73;47.27
29569;BME280;16501;51.462;14.346;2023-05-18T10:23:33;101297.56;;;13.90;48.52
29569;BME280;16501;51.462;14.346;2023-05-18T10:25:58;101290.50;;;14.04;46.47
29569;BME280;16501;51.462;14.346;2023-05-18T10:28:30;101277.97;;;14.05;47.66
29569;BME280;16501;51.462;14.346;2023-05-18T10:30:58;101283.00;;;13.83;45.50
29569;BME280;16501;51.462;14.346;2023-05-18T10:33:25;101275.66;;;13.57;46.30
29569;BME280;16501;51.462;14.346;2023-05-18T10:35:51;101281.16;;;13.52;46.60
29569;BME280;16501;51.462;14.346;2023-05-18T10:38:22;101274.25;;;13.53;46.57
29569;BME280;16501;51.462;14.346;2023-05-18T10:41:02;101287.41;;;13.65;47.30
29569;BME280;16501;51.462;14.346;2023-05-18T10:43:29;101289.28;;;13.50;46.58
29569;BME280;16501;51.462;14.346;2023-05-18T10:45:58;101282.88;;;13.58;47.40
29569;BME280;16501;51.462;14.346;2023-05-18T10:48:24;101272.22;;;13.63;47.89
29569;BME280;16501;51.462;14.346;2023-05-18T10:50:52;101271.13;;;13.69;46.68
29569;BME280;16501;51.462;14.346;2023-05-18T10:53:21;101288.34;;;13.81;46.42
29569;BME280;16501;51.462;14.346;2023-05-18T10:55:48;101285.03;;;13.91;49.21
29569;BME280;16501;51.462;14.346;2023-05-18T10:58:15;101289.13;;;13.81;45.68
29569;BME280;16501;51.462;14.346;2023-05-18T11:00:45;101278.78;;;13.78;45.72
29569;BME280;16501;51.462;14.346;2023-05-18T11:03:12;101274.38;;;13.86;46.61
29569;BME280;16501;51.462;14.346;2023-05-18T11:05:39;101254.19;;;13.60;47.58
29569;BME280;16501;51.462;14.346;2023-05-18T11:08:05;101266.25;;;13.79;48.10
29569;BME280;16501;51.462;14.346;2023-05-18T11:13:00;101262.19;;;13.99;48.19
29569;BME280;16501;51.462;14.346;2023-05-18T11:18:17;101233.47;;;14.09;48.60
29569;BME280;16501;51.462;14.346;2023-05-18T11:20:47;101273.31;;;14.45;45.62
29569;BME280;16501;51.462;14.346;2023-05-18T11:23:12;101267.47;;;14.58;45.94
29569;BME280;16501;51.462;14.346;2023-05-18T11:25:42;101270.88;;;14.71;46.78
29569;BME280;16501;51.462;14.346;2023-05-18T11:28:10;101251.03;;;14.56;44.81
29569;BME280;16501;51.462;14.346;2023-05-18T11:33:12;101262.16;;;14.50;46.73
29569;BME280;16501;51.462;14.346;2023-05-18T11:46:35;101248.59;;;14.73;43.83
29569;BME280;16501;51.462;14.346;2023-05-18T11:49:06;101256.41;;;14.78;44.19
29569;BME280;16501;51.462;14.346;2023-05-18T11:51:32;101264.59;;;14.76;44.16
29569;BME280;16501;51.462;14.346;2023-05-18T11:53:58;101272.75;;;14.74;45.64
29569;BME280;16501;51.462;14.346;2023-05-18T11:56:30;101266.25;;;14.59;44.62
29569;BME280;16501;51.462;14.346;2023-05-18T11:59:13;101257.25;;;14.69;46.12
29569;BME280;16501;51.462;14.346;2023-05-18T12:01:40;101251.63;;;14.94;45.95
29569;BME280;16501;51.462;14.346;2023-05-18T12:04:06;101252.59;;;14.90;43.37
29569;BME280;16501;51.462;14.346;2023-05-18T12:06:32;101259.88;;;14.82;43.86
29569;BME280;16501;51.462;14.346;2023-05-18T12:08:57;101260.16;;;14.84;44.71
29569;BME280;16501;51.462;14.346;2023-05-18T12:11:27;101249.66;;;14.85;43.71
29569;BME280;16501;51.462;14.346;2023-05-18T12:13:53;101235.34;;;14.88;44.16
29569;BME280;16501;51.462;14.346;2023-05-18T12:16:20;101245.59;;;15.10;45.66
29569;BME280;16501;51.462;14.346;2023-05-18T12:18:49;101249.13;;;15.20;44.24
29569;BME280;16501;51.462;14.346;2023-05-18T12:21:20;101239.28;;;15.15;44.35
29569;BME280;16501;51.462;14.346;2023-05-18T12:23:45;101247.72;;;15.39;44.29
29569;BME280;16501;51.462;14.346;2023-05-18T12:26:11;101238.16;;;15.37;42.57
29569;BME280;16501;51.462;14.346;2023-05-18T12:28:37;101240.53;;;15.53;43.31
29569;BME280;16501;51.462;14.346;2023-05-18T12:31:03;101248.13;;;15.86;46.48
29569;BME280;16501;51.462;14.346;2023-05-18T12:33:34;101249.88;;;15.83;43.05
29569;BME280;16501;51.462;14.346;2023-05-18T12:35:59;101247.47;;;15.52;44.71
29569;BME280;16501;51.462;14.346;2023-05-18T12:38:25;101244.16;;;15.69;43.15
29569;BME280;16501;51.462;14.346;2023-05-18T12:40:51;101244.16;;;15.54;42.07
29569;BME280;16501;51.462;14.346;2023-05-18T12:43:18;101240.28;;;15.27;41.63
29569;BME280;16501;51.462;14.346;2023-05-18T12:45:43;101243.44;;;15.44;44.15
29569;BME280;16501;51.462;14.346;2023-05-18T12:48:10;101224.84;;;15.52;42.27
29569;BME280;16501;51.462;14.346;2023-05-18T12:50:45;101220.06;;;15.43;42.77
29569;BME280;16501;51.462;14.346;2023-05-18T12:53:10;101227.16;;;15.39;42.39
29569;BME280;16501;51.462;14.346;2023-05-18T12:55:35;101215.84;;;15.39;43.49
29569;BME280;16501;51.462;14.346;2023-05-18T12:58:14;101197.13;;;15.26;44.23
29569;BME280;16501;51.462;14.346;2023-05-18T13:00:49;101234.28;;;15.49;42.85
29569;BME280;16501;51.462;14.346;2023-05-18T13:03:17;101213.59;;;15.28;42.79
29569;BME280;16501;51.462;14.346;2023-05-18T13:05:45;101219.91;;;15.23;43.01
29569;BME280;16501;51.462;14.346;2023-05-18T13:08:13;101206.56;;;15.23;43.45
29569;BME280;16501;51.462;14.346;2023-05-18T13:10:42;101221.97;;;15.37;41.66